createdAt,value
2017-12-16T00:14:04.779Z,2.80
2017-12-16T00:19:20.728Z,2.90
2017-12-16T00:21:47.739Z,2.90
2017-12-16T00:24:14.811Z,2.80
2017-12-16T00:26:41.844Z,2.80
2017-12-16T00:41:25.710Z,2.70
2017-12-16T00:49:50.019Z,2.80
2017-12-16T00:54:57.803Z,2.80
2017-12-16T00:57:27.696Z,2.70
2017-12-16T02:47:58.553Z,2.70
2017-12-16T03:01:24.067Z,2.80
2017-12-16T03:04:09.229Z,2.80
2017-12-16T03:09:23.514Z,2.90
2017-12-16T03:14:26.469Z,2.80
2017-12-16T03:16:54.589Z,2.80
2017-12-16T03:19:22.847Z,2.90
2017-12-16T03:21:52.854Z,2.90
2017-12-16T03:26:56.849Z,3.00
2017-12-16T03:34:31.427Z,3.00
2017-12-16T03:44:56.405Z,2.90
2017-12-16T03:47:24.714Z,2.90
2017-12-16T04:08:17.718Z,3.00
2017-12-16T04:10:47.110Z,3.00
2017-12-16T04:15:51.583Z,3.00
2017-12-16T04:23:27.651Z,3.00
2017-12-16T04:28:33.083Z,3.00
2017-12-16T04:31:07.449Z,3.10
2017-12-16T04:36:07.750Z,3.10
2017-12-16T04:38:44.920Z,3.10
2017-12-16T04:41:17.401Z,3.00
2017-12-16T04:43:45.811Z,3.00
2017-12-16T04:46:17.640Z,3.00
2017-12-16T04:48:48.828Z,3.00
2017-12-16T04:56:25.730Z,3.00
2017-12-16T04:58:55.199Z,3.00
2017-12-16T05:03:58.735Z,3.00
2017-12-16T05:06:25.835Z,2.90
2017-12-16T05:08:53.654Z,2.90
2017-12-16T05:11:21.630Z,3.00
2017-12-16T05:13:50.437Z,2.90
2017-12-16T05:16:18.008Z,2.90
2017-12-16T05:18:46.248Z,2.90
2017-12-16T05:21:13.602Z,2.90
2017-12-16T05:23:41.769Z,3.00
2017-12-16T05:26:08.904Z,3.00
2017-12-16T05:28:37.458Z,2.90
2017-12-16T05:31:05.373Z,2.90
2017-12-16T05:33:32.444Z,2.90
2017-12-16T05:36:00.770Z,2.80
2017-12-16T05:38:28.315Z,2.90
2017-12-16T05:40:56.309Z,2.90
2017-12-16T05:45:58.519Z,3.10
2017-12-16T05:48:29.255Z,3.10
2017-12-16T05:51:00.515Z,3.00
2017-12-16T05:56:01.056Z,3.00
2017-12-16T05:58:29.567Z,3.00
2017-12-16T06:03:30.530Z,2.90
2017-12-16T06:08:33.739Z,2.80
2017-12-16T06:11:00.855Z,2.80
2017-12-16T06:13:28.652Z,2.80
2017-12-16T06:15:55.686Z,2.80
2017-12-16T06:18:22.790Z,2.90
2017-12-16T06:20:50.944Z,2.90
2017-12-16T06:23:19.720Z,3.00
2017-12-16T06:25:47.250Z,3.00
2017-12-16T06:28:15.775Z,3.00
2017-12-16T06:30:42.932Z,2.90
2017-12-16T06:33:11.345Z,3.00
2017-12-16T06:35:42.213Z,3.00
2017-12-16T06:38:09.322Z,3.00
2017-12-16T06:40:37.387Z,3.10
2017-12-16T06:43:08.008Z,3.10
2017-12-16T06:45:37.923Z,3.00
2017-12-16T06:48:05.008Z,3.10
2017-12-16T06:50:34.227Z,3.10
2017-12-16T06:53:02.196Z,3.10
2017-12-16T06:55:30.237Z,3.00
2017-12-16T06:57:57.897Z,2.90
2017-12-16T07:00:26.188Z,2.90
2017-12-16T07:02:55.905Z,3.00
2017-12-16T07:05:24.886Z,3.00
2017-12-16T07:07:52.831Z,3.00
2017-12-16T07:16:05.646Z,3.10
2017-12-16T07:18:35.175Z,3.10
2017-12-16T07:21:04.016Z,3.10
2017-12-16T07:23:33.346Z,3.10
2017-12-16T07:26:01.604Z,3.00
2017-12-16T07:28:30.773Z,3.00
2017-12-16T07:30:57.816Z,2.90
2017-12-16T07:33:26.950Z,2.90
2017-12-16T07:35:55.149Z,2.90
2017-12-16T07:38:23.280Z,2.80
2017-12-16T07:40:52.235Z,2.70
2017-12-16T07:43:19.739Z,2.60
2017-12-16T07:45:47.287Z,2.60
2017-12-16T07:48:15.157Z,2.60
2017-12-16T07:50:42.353Z,2.60
2017-12-16T07:53:10.138Z,2.60
2017-12-16T07:55:40.009Z,2.60
2017-12-16T07:58:07.286Z,2.70
2017-12-16T08:00:34.560Z,2.60
2017-12-16T08:05:37.599Z,2.70
2017-12-16T08:10:40.219Z,2.80
2017-12-16T08:13:08.230Z,2.80
2017-12-16T08:15:38.898Z,2.80
2017-12-16T08:18:06.432Z,2.80
2017-12-16T08:20:35.264Z,2.90
2017-12-16T08:23:05.970Z,2.90
2017-12-16T08:25:35.088Z,2.90
2017-12-16T08:28:03.120Z,2.90
2017-12-16T08:30:31.319Z,3.00
2017-12-16T08:33:01.378Z,3.00
2017-12-16T08:35:29.208Z,3.00
2017-12-16T08:37:56.880Z,3.00
2017-12-16T08:40:23.968Z,3.10
2017-12-16T08:42:52.869Z,3.10
2017-12-16T08:45:20.012Z,3.20
2017-12-16T08:47:47.124Z,3.30
2017-12-16T08:50:14.237Z,3.30
2017-12-16T08:52:41.362Z,3.30
2017-12-16T08:55:08.480Z,3.30
2017-12-16T08:57:35.567Z,3.30
2017-12-16T09:00:02.692Z,3.30
2017-12-16T09:02:29.803Z,3.30
2017-12-16T09:04:56.802Z,3.30
2017-12-16T09:07:23.844Z,3.30
2017-12-16T09:09:50.906Z,3.30
2017-12-16T09:12:17.930Z,3.40
2017-12-16T09:14:44.968Z,3.30
2017-12-16T09:17:11.994Z,3.30
2017-12-16T09:19:39.041Z,3.30
2017-12-16T09:22:06.917Z,3.40
2017-12-16T09:24:33.981Z,3.30
2017-12-16T09:27:03.028Z,3.30
2017-12-16T09:29:30.515Z,3.40
2017-12-16T09:31:57.562Z,3.40
2017-12-16T09:34:28.527Z,3.40
2017-12-16T09:36:57.306Z,3.40
2017-12-16T09:39:24.701Z,3.50
2017-12-16T09:41:52.477Z,3.50
2017-12-16T09:44:19.519Z,3.60
2017-12-16T09:46:46.696Z,3.60
2017-12-16T09:49:15.027Z,3.60
2017-12-16T09:51:43.736Z,3.60
2017-12-16T09:54:11.089Z,3.60
2017-12-16T09:56:43.211Z,3.70
2017-12-16T09:59:23.781Z,3.70
2017-12-16T10:04:32.327Z,3.80
2017-12-16T10:09:46.820Z,3.90
2017-12-16T10:14:50.663Z,4.00
2017-12-16T10:17:18.890Z,4.00
2017-12-16T10:19:50.233Z,4.00
2017-12-16T10:22:23.058Z,4.00
2017-12-16T10:24:56.334Z,4.00
2017-12-16T13:47:36.661Z,16.80
2017-12-16T13:50:23.267Z,15.50
2017-12-16T14:57:48.719Z,15.10
2017-12-16T16:58:38.817Z,23.20
2017-12-16T17:01:06.329Z,22.20
2017-12-16T17:03:33.818Z,21.60
2017-12-16T17:06:01.349Z,21.20
2017-12-16T17:08:28.840Z,21.00
2017-12-16T17:10:56.283Z,20.90
2017-12-16T17:13:23.739Z,20.80
2017-12-16T17:15:51.230Z,20.80
2017-12-16T17:18:18.679Z,20.70
2017-12-16T17:20:46.166Z,20.60
2017-12-16T17:23:13.623Z,20.10
2017-12-16T17:25:41.121Z,21.00
2017-12-16T17:28:08.609Z,20.80
2017-12-16T17:30:36.835Z,20.60
2017-12-16T17:33:04.350Z,20.60
2017-12-16T17:35:31.794Z,20.50
2017-12-16T17:37:59.244Z,20.50
2017-12-16T17:40:27.520Z,20.40
2017-12-16T17:42:55.776Z,20.40
2017-12-16T17:45:23.275Z,20.40
2017-12-16T17:47:50.753Z,20.40
2017-12-16T17:50:18.210Z,20.30
2017-12-16T17:52:45.659Z,20.30
2017-12-16T17:57:41.964Z,25.90
2017-12-16T18:02:38.328Z,27.90
2017-12-16T18:05:07.764Z,27.40
2017-12-16T18:07:35.251Z,24.90
2017-12-16T18:10:02.764Z,23.50
2017-12-16T18:12:30.241Z,22.60
2017-12-16T18:14:57.687Z,22.00
2017-12-16T18:17:25.139Z,21.70
2017-12-16T18:19:52.597Z,21.50
2017-12-16T18:22:20.103Z,21.30
2017-12-16T18:24:48.392Z,21.00
2017-12-16T18:27:16.608Z,21.00
2017-12-16T18:29:44.108Z,20.90
2017-12-16T18:32:12.378Z,20.80
2017-12-16T18:34:39.883Z,20.80
2017-12-16T18:37:07.713Z,20.80
2017-12-16T18:39:35.983Z,20.70
2017-12-16T18:42:04.264Z,20.70
2017-12-16T18:44:32.568Z,20.60
2017-12-16T18:47:00.059Z,20.60
2017-12-16T18:49:27.547Z,20.60
2017-12-16T18:51:55.802Z,20.00
2017-12-16T18:54:23.275Z,19.90
2017-12-16T18:56:51.503Z,19.90
2017-12-16T18:59:18.947Z,19.90
2017-12-16T19:01:46.454Z,20.00
2017-12-16T19:04:13.945Z,20.20
2017-12-16T19:06:41.439Z,20.30
2017-12-16T19:09:08.934Z,20.40
2017-12-16T19:11:36.439Z,20.60
2017-12-16T19:14:03.942Z,20.60
2017-12-16T19:24:47.840Z,20.70
2017-12-16T19:57:16.531Z,6.30
2017-12-16T19:59:43.987Z,5.70
2017-12-16T20:02:11.674Z,5.10
2017-12-16T20:04:39.177Z,4.50
2017-12-16T20:07:07.218Z,4.10
2017-12-16T20:09:36.366Z,3.70
2017-12-16T20:12:03.823Z,3.70
2017-12-16T20:14:31.465Z,3.50
2017-12-16T20:16:58.982Z,3.50
2017-12-16T20:19:27.190Z,3.40
2017-12-16T20:21:54.989Z,3.40
2017-12-16T20:24:22.551Z,3.30
2017-12-16T20:26:50.706Z,3.30
2017-12-16T20:29:18.211Z,3.30
2017-12-16T20:31:47.368Z,3.30
2017-12-16T20:34:14.934Z,3.30
2017-12-16T20:36:42.474Z,3.30
2017-12-16T20:39:09.995Z,3.20
2017-12-16T20:41:37.494Z,3.20
2017-12-16T20:44:05.002Z,3.20
2017-12-16T20:46:34.294Z,3.20
2017-12-16T20:49:02.633Z,3.20
2017-12-16T20:51:30.863Z,3.20
2017-12-16T20:53:58.487Z,3.20
2017-12-16T20:56:25.994Z,3.20
2017-12-16T20:58:53.506Z,3.20
2017-12-16T21:01:20.998Z,3.20
2017-12-16T21:03:48.515Z,3.20
2017-12-16T21:06:16.096Z,3.20
2017-12-16T21:08:43.608Z,3.20
2017-12-16T21:11:11.092Z,3.20
2017-12-16T21:13:44.586Z,3.20
2017-12-16T21:16:12.078Z,3.20
2017-12-16T21:18:39.788Z,3.20
2017-12-16T21:21:07.298Z,3.10
2017-12-16T21:23:34.802Z,3.10
2017-12-16T21:26:02.314Z,3.10
2017-12-16T21:28:29.824Z,3.10
2017-12-16T21:30:57.315Z,3.00
2017-12-16T21:33:25.585Z,3.00
2017-12-16T21:35:53.852Z,2.90
2017-12-16T21:38:22.135Z,2.90
2017-12-16T21:40:50.394Z,2.80
2017-12-16T21:43:17.891Z,2.80
2017-12-16T21:45:45.390Z,2.80
2017-12-16T21:48:12.907Z,2.80
2017-12-16T21:50:40.406Z,2.90
2017-12-16T21:53:08.042Z,2.90
2017-12-16T21:55:36.297Z,2.80
2017-12-16T21:58:03.813Z,2.80
2017-12-16T22:00:31.314Z,2.80
2017-12-16T22:02:58.810Z,2.90
2017-12-16T22:05:26.319Z,2.90
2017-12-16T22:07:53.806Z,2.90
2017-12-16T22:10:21.302Z,2.90
2017-12-16T22:12:50.186Z,2.90
2017-12-16T22:15:18.948Z,2.90
2017-12-16T22:17:46.510Z,3.00
2017-12-16T22:20:14.075Z,3.00
2017-12-16T22:22:41.598Z,3.00
2017-12-16T22:25:09.991Z,3.00
2017-12-16T22:27:38.324Z,2.90
2017-12-16T22:30:06.690Z,2.90
2017-12-16T22:32:34.173Z,2.80
2017-12-16T22:35:01.747Z,2.80
2017-12-16T22:37:29.181Z,2.80
2017-12-16T22:39:57.454Z,2.60
2017-12-16T22:42:24.956Z,2.70
2017-12-16T22:44:52.456Z,2.60
2017-12-16T22:47:20.714Z,2.60
2017-12-16T22:49:48.194Z,2.60
2017-12-16T22:52:15.684Z,2.60
2017-12-16T22:54:43.179Z,2.60
2017-12-16T22:57:10.737Z,2.70
2017-12-16T22:59:38.182Z,2.70
2017-12-16T23:02:05.656Z,2.70
2017-12-16T23:04:33.158Z,2.70
2017-12-16T23:07:00.636Z,2.70
2017-12-16T23:09:28.134Z,2.70
2017-12-16T23:11:55.620Z,2.70
2017-12-16T23:14:23.124Z,2.70
2017-12-16T23:16:50.611Z,2.70
2017-12-16T23:19:18.889Z,2.70
2017-12-16T23:21:47.151Z,2.80
2017-12-16T23:24:14.644Z,2.80
2017-12-16T23:26:42.138Z,2.80
2017-12-16T23:29:09.621Z,2.80
2017-12-16T23:31:37.119Z,2.80
2017-12-16T23:34:04.555Z,2.90
2017-12-16T23:36:32.766Z,2.90
2017-12-16T23:39:00.268Z,2.80
2017-12-16T23:41:27.750Z,2.90
2017-12-16T23:43:55.187Z,2.90
2017-12-16T23:46:22.698Z,2.90
2017-12-16T23:48:50.176Z,2.90
2017-12-16T23:51:17.668Z,2.90
2017-12-16T23:53:45.871Z,2.90
2017-12-16T23:56:13.367Z,2.80
2017-12-16T23:58:40.807Z,2.90
